createdAt,value
2018-04-23T00:00:00.871Z,5.00
2018-04-23T00:03:04.216Z,5.77
2018-04-23T00:06:07.612Z,4.10
2018-04-23T00:09:10.906Z,4.63
2018-04-23T00:12:14.166Z,4.37
2018-04-23T00:15:17.459Z,4.30
2018-04-23T00:18:20.796Z,9.33
2018-04-23T00:21:24.035Z,8.63
2018-04-23T00:24:27.373Z,6.35
2018-04-23T00:27:30.643Z,7.57
2018-04-23T00:30:33.920Z,4.87
2018-04-23T00:33:37.176Z,5.97
2018-04-23T00:36:42.524Z,6.90
2018-04-23T00:39:46.348Z,7.40
2018-04-23T00:42:49.727Z,5.40
2018-04-23T00:45:52.923Z,6.90
2018-04-23T00:48:56.484Z,7.87
2018-04-23T00:51:59.838Z,10.80
2018-04-23T00:55:04.241Z,8.50
2018-04-23T00:58:07.555Z,5.33
2018-04-23T01:01:10.888Z,5.67
2018-04-23T01:04:14.243Z,6.73
2018-04-23T01:07:17.666Z,5.37
2018-04-23T01:10:21.054Z,6.00
2018-04-23T01:13:24.355Z,4.83
2018-04-23T01:16:27.656Z,7.33
2018-04-23T01:19:31.081Z,5.77
2018-04-23T01:22:34.439Z,8.70
2018-04-23T01:25:37.748Z,9.63
2018-04-23T01:28:41.029Z,5.47
2018-04-23T01:31:45.297Z,6.17
2018-04-23T01:34:48.560Z,4.63
2018-04-23T01:37:51.963Z,5.77
2018-04-23T01:40:55.341Z,4.97
2018-04-23T01:43:59.688Z,5.63
2018-04-23T01:47:03.161Z,7.13
2018-04-23T01:50:06.488Z,5.60
2018-04-23T01:53:09.704Z,7.43
2018-04-23T01:56:12.972Z,5.80
2018-04-23T01:59:16.511Z,5.73
2018-04-23T02:02:19.723Z,5.10
2018-04-23T02:05:23.068Z,6.33
2018-04-23T02:08:26.468Z,7.77
2018-04-23T02:11:29.747Z,7.77
2018-04-23T02:14:33.019Z,7.13
2018-04-23T02:17:36.359Z,7.93
2018-04-23T02:20:39.654Z,5.63
2018-04-23T02:23:43.056Z,7.60
2018-04-23T02:26:47.220Z,9.27
2018-04-23T02:29:50.571Z,9.73
2018-04-23T02:32:53.870Z,7.00
2018-04-23T02:35:57.321Z,4.63
2018-04-23T02:39:00.776Z,4.67
2018-04-23T02:42:03.992Z,4.50
2018-04-23T02:45:07.404Z,8.37
2018-04-23T02:48:10.707Z,5.50
2018-04-23T02:51:14.067Z,5.80
2018-04-23T02:54:18.518Z,6.73
2018-04-23T02:57:21.879Z,6.83
2018-04-23T03:00:25.094Z,5.97
2018-04-23T03:03:29.076Z,7.13
2018-04-23T03:06:32.412Z,6.83
2018-04-23T03:09:35.704Z,6.37
2018-04-23T03:12:38.979Z,6.00
2018-04-23T03:15:42.288Z,6.00
2018-04-23T03:18:45.543Z,5.97
2018-04-23T03:21:48.777Z,6.57
2018-04-23T03:24:52.192Z,7.93
2018-04-23T03:27:56.232Z,8.90
2018-04-23T03:30:59.504Z,6.93
2018-04-23T03:34:02.868Z,12.87
2018-04-23T03:37:06.202Z,7.23
2018-04-23T03:40:09.496Z,7.10
2018-04-23T03:43:12.848Z,7.33
2018-04-23T03:46:16.191Z,4.90
2018-04-23T03:49:19.444Z,10.87
2018-04-23T03:52:22.787Z,5.20
2018-04-23T03:55:26.942Z,10.53
2018-04-23T03:58:30.205Z,7.37
2018-04-23T04:01:33.597Z,7.00
2018-04-23T04:04:36.923Z,6.13
2018-04-23T04:07:40.172Z,5.33
2018-04-23T04:10:43.519Z,10.90
2018-04-23T04:13:58.239Z,7.30
2018-04-23T04:17:01.512Z,6.87
2018-04-23T04:20:04.810Z,4.93
2018-04-23T04:23:08.109Z,7.27
2018-04-23T04:26:13.399Z,7.77
2018-04-23T04:29:16.824Z,6.80
2018-04-23T04:32:20.190Z,9.03
2018-04-23T04:35:23.504Z,9.90
2018-04-23T04:38:28.136Z,9.27
2018-04-23T04:41:31.445Z,4.23
2018-04-23T04:44:34.594Z,9.77
2018-04-23T04:47:37.932Z,9.80
2018-04-23T04:50:41.234Z,8.43
2018-04-23T04:53:44.504Z,5.70
2018-04-23T04:56:47.972Z,6.97
2018-04-23T04:59:51.277Z,10.93
2018-04-23T05:02:55.093Z,8.93
2018-04-23T05:05:58.373Z,9.30
2018-04-23T05:09:01.686Z,6.33
2018-04-23T05:12:05.022Z,6.67
2018-04-23T05:15:08.405Z,8.50
2018-04-23T05:18:11.724Z,8.27
2018-04-23T05:21:15.012Z,9.23
2018-04-23T05:24:18.428Z,10.13
2018-04-23T05:27:21.812Z,6.80
2018-04-23T05:30:26.281Z,8.67
2018-04-23T05:33:29.668Z,9.10
2018-04-23T05:36:33.041Z,10.07
2018-04-23T05:39:36.317Z,12.67
2018-04-23T05:42:39.725Z,8.00
2018-04-23T05:45:43.026Z,8.77
2018-04-23T05:48:46.252Z,9.30
2018-04-23T05:51:49.623Z,10.40
2018-04-23T05:54:53.010Z,7.00
2018-04-23T05:57:56.343Z,8.23
2018-04-23T06:00:59.704Z,11.23
2018-04-23T06:04:02.986Z,7.73
2018-04-23T06:07:09.868Z,8.07
2018-04-23T06:10:13.149Z,7.37
2018-04-23T06:13:16.275Z,11.37
2018-04-23T06:16:19.605Z,9.03
2018-04-23T06:19:22.883Z,13.40
2018-04-23T06:22:26.267Z,10.27
2018-04-23T06:25:29.477Z,13.83
2018-04-23T06:28:32.706Z,14.90
2018-04-23T06:31:36.176Z,11.70
2018-04-23T06:34:39.573Z,19.07
2018-04-23T06:37:42.800Z,12.07
2018-04-23T06:40:46.155Z,13.10
2018-04-23T06:43:49.934Z,18.40
2018-04-23T06:46:54.299Z,16.20
2018-04-23T06:49:57.584Z,13.37
2018-04-23T06:53:00.812Z,10.97
2018-04-23T06:56:05.124Z,13.03
2018-04-23T06:59:08.374Z,13.22
2018-04-23T07:02:11.651Z,11.03
2018-04-23T07:05:15.029Z,9.90
2018-04-23T07:08:18.320Z,13.50
2018-04-23T07:11:21.678Z,15.13
2018-04-23T07:14:24.988Z,13.57
2018-04-23T07:17:28.520Z,14.37
2018-04-23T07:20:31.960Z,17.83
2018-04-23T07:23:35.297Z,14.07
2018-04-23T07:26:38.486Z,16.13
2018-04-23T07:29:41.893Z,17.90
2018-04-23T07:32:45.275Z,12.97
2018-04-23T07:35:48.522Z,16.33
2018-04-23T07:38:51.801Z,14.47
2018-04-23T07:41:55.187Z,13.83
2018-04-23T07:44:58.382Z,17.50
2018-04-23T07:48:01.799Z,17.47
2018-04-23T07:51:05.218Z,15.10
2018-04-23T07:54:08.553Z,18.37
2018-04-23T07:57:11.995Z,18.53
2018-04-23T08:00:15.411Z,17.17
2018-04-23T08:03:18.902Z,19.57
2018-04-23T08:06:22.100Z,14.13
2018-04-23T08:09:25.504Z,20.33
2018-04-23T08:12:28.878Z,12.60
2018-04-23T08:15:32.209Z,17.50
2018-04-23T08:18:35.519Z,17.93
2018-04-23T08:21:38.768Z,15.83
2018-04-23T08:24:42.084Z,19.23
2018-04-23T08:27:45.403Z,17.10
2018-04-23T08:30:48.720Z,18.37
2018-04-23T08:33:51.953Z,31.53
2018-04-23T08:36:55.268Z,16.47
2018-04-23T08:39:58.598Z,15.20
2018-04-23T08:43:01.954Z,17.93
2018-04-23T08:46:05.224Z,20.73
2018-04-23T08:49:08.573Z,13.53
2018-04-23T08:52:11.956Z,14.07
2018-04-23T08:55:15.250Z,19.80
2018-04-23T08:58:18.552Z,14.33
2018-04-23T09:01:22.119Z,16.80
2018-04-23T09:04:25.253Z,14.20
2018-04-23T09:07:29.663Z,16.73
2018-04-23T09:10:32.912Z,17.30
2018-04-23T09:13:36.208Z,19.80
2018-04-23T09:16:39.521Z,15.23
2018-04-23T09:19:42.877Z,17.13
2018-04-23T09:22:46.021Z,15.57
2018-04-23T09:25:49.344Z,15.07
2018-04-23T09:28:52.730Z,15.57
2018-04-23T09:31:56.036Z,15.20
2018-04-23T09:34:59.287Z,16.37
2018-04-23T09:38:02.645Z,20.83
2018-04-23T09:41:05.827Z,15.10
2018-04-23T09:44:09.063Z,20.43
2018-04-23T09:47:12.455Z,17.80
2018-04-23T09:50:15.829Z,14.60
2018-04-23T09:53:19.117Z,18.03
2018-04-23T09:56:22.532Z,17.17
2018-04-23T09:59:25.911Z,21.03
2018-04-23T10:02:29.233Z,18.30
2018-04-23T10:05:32.604Z,17.20
2018-04-23T10:08:35.989Z,17.00
2018-04-23T10:11:39.329Z,17.80
2018-04-23T10:14:42.632Z,14.23
2018-04-23T10:17:46.042Z,16.50
2018-04-23T10:20:49.439Z,15.97
2018-04-23T10:23:53.809Z,18.27
2018-04-23T10:26:57.153Z,20.57
2018-04-23T10:30:00.581Z,17.97
2018-04-23T10:33:03.781Z,13.17
2018-04-23T10:36:07.158Z,16.10
2018-04-23T10:39:10.557Z,16.70
2018-04-23T10:42:13.809Z,15.70
2018-04-23T10:45:16.976Z,14.43
2018-04-23T10:48:20.256Z,13.80
2018-04-23T10:51:23.647Z,13.53
2018-04-23T10:54:26.904Z,18.90
2018-04-23T10:57:30.137Z,17.10
2018-04-23T11:00:33.307Z,16.67
2018-04-23T11:03:36.564Z,14.50
2018-04-23T11:06:39.922Z,17.53
2018-04-23T11:09:44.076Z,16.70
2018-04-23T11:12:47.296Z,17.93
2018-04-23T11:15:50.651Z,12.30
2018-04-23T11:18:53.964Z,13.97
2018-04-23T11:21:57.488Z,16.40
2018-04-23T11:25:00.921Z,19.73
2018-04-23T11:28:04.403Z,17.30
2018-04-23T11:31:07.608Z,14.73
2018-04-23T11:34:10.884Z,17.77
2018-04-23T11:37:14.233Z,13.47
2018-04-23T11:40:17.506Z,17.00
2018-04-23T11:43:20.783Z,13.63
2018-04-23T11:46:24.313Z,13.50
2018-04-23T11:49:27.623Z,13.23
2018-04-23T11:52:31.045Z,13.10
2018-04-23T11:55:34.281Z,13.57
2018-04-23T11:58:37.477Z,13.03
2018-04-23T12:01:40.884Z,17.20
2018-04-23T12:04:44.200Z,18.33
2018-04-23T12:07:47.653Z,16.07
2018-04-23T12:10:51.058Z,21.90
2018-04-23T12:13:54.392Z,19.57
2018-04-23T12:16:57.623Z,16.57
2018-04-23T12:20:01.017Z,13.83
2018-04-23T12:23:04.370Z,12.30
2018-04-23T12:26:24.673Z,16.17
2018-04-23T12:29:28.272Z,18.50
2018-04-23T12:32:31.715Z,16.97
2018-04-23T12:35:35.023Z,18.83
2018-04-23T12:38:38.384Z,12.63
2018-04-23T12:41:41.537Z,18.97
2018-04-23T12:44:44.863Z,17.67
2018-04-23T12:47:48.228Z,14.37
2018-04-23T12:50:51.560Z,19.50
2018-04-23T12:53:54.960Z,12.67
2018-04-23T12:56:58.510Z,16.30
2018-04-23T13:00:01.823Z,14.60
2018-04-23T13:03:05.062Z,13.40
2018-04-23T13:06:09.437Z,20.13
2018-04-23T13:09:12.753Z,20.17
2018-04-23T13:12:16.201Z,11.00
2018-04-23T13:15:20.541Z,19.47
2018-04-23T13:18:23.929Z,17.43
2018-04-23T13:21:27.199Z,16.83
2018-04-23T13:24:31.601Z,20.03
2018-04-23T13:27:34.956Z,16.37
2018-04-23T13:30:38.266Z,23.30
2018-04-23T13:33:41.965Z,16.93
2018-04-23T13:36:45.285Z,20.30
2018-04-23T13:39:48.506Z,19.40
2018-04-23T13:42:51.857Z,21.17
2018-04-23T13:45:55.021Z,17.82
2018-04-23T13:48:58.449Z,17.50
2018-04-23T13:52:01.698Z,18.50
2018-04-23T13:55:05.116Z,17.27
2018-04-23T13:58:08.457Z,16.60
2018-04-23T14:01:11.766Z,19.17
2018-04-23T14:04:16.191Z,17.10
2018-04-23T14:07:19.569Z,15.57
2018-04-23T14:10:22.751Z,23.43
2018-04-23T14:13:27.163Z,15.63
2018-04-23T14:16:30.447Z,21.93
2018-04-23T14:19:33.826Z,21.47
2018-04-23T14:22:37.146Z,17.10
2018-04-23T14:25:40.485Z,16.83
2018-04-23T14:28:43.897Z,14.47
2018-04-23T14:31:47.347Z,18.03
2018-04-23T14:34:50.687Z,16.10
2018-04-23T14:37:54.002Z,15.67
2018-04-23T14:40:57.345Z,16.93
2018-04-23T14:44:00.701Z,15.77
2018-04-23T14:47:04.085Z,16.33
2018-04-23T14:50:07.415Z,20.50
2018-04-23T14:53:10.807Z,26.13
2018-04-23T14:56:14.240Z,21.77
2018-04-23T14:59:17.627Z,17.17
2018-04-23T15:02:20.901Z,21.93
2018-04-23T15:05:24.272Z,16.07
2018-04-23T15:08:27.681Z,17.37
2018-04-23T15:11:30.832Z,23.63
2018-04-23T15:14:34.134Z,19.07
2018-04-23T15:17:37.468Z,18.93
2018-04-23T15:20:40.880Z,14.23
2018-04-23T15:23:44.223Z,17.67
2018-04-23T15:26:47.583Z,15.03
2018-04-23T15:29:50.858Z,15.53
2018-04-23T15:32:54.212Z,13.33
2018-04-23T15:35:57.620Z,21.13
2018-04-23T15:39:01.884Z,18.83
2018-04-23T15:42:05.091Z,17.50
2018-04-23T15:45:08.843Z,16.77
2018-04-23T15:48:12.774Z,17.27
2018-04-23T15:51:16.841Z,19.83
2018-04-23T15:54:20.822Z,15.07
2018-04-23T15:57:24.389Z,15.90
2018-04-23T16:00:28.097Z,14.57
2018-04-23T16:03:31.907Z,18.93
2018-04-23T18:13:48.545Z,8.87
2018-04-23T18:48:37.482Z,15.65
2018-04-23T18:51:40.654Z,11.70
2018-04-23T18:54:43.998Z,11.53
2018-04-23T18:57:47.274Z,10.23
2018-04-23T19:00:50.672Z,9.40
2018-04-23T19:03:53.947Z,11.87
2018-04-23T19:06:57.646Z,11.40
2018-04-23T19:10:01.085Z,13.63
2018-04-23T19:13:04.472Z,8.93
2018-04-23T19:16:08.807Z,12.93
2018-04-23T19:19:12.200Z,11.93
2018-04-23T19:22:15.380Z,9.63
2018-04-23T19:25:18.868Z,9.00
2018-04-23T19:28:22.212Z,13.23
2018-04-23T19:31:26.132Z,12.43
2018-04-23T19:34:29.470Z,8.70
2018-04-23T19:37:32.690Z,12.80
2018-04-23T19:40:36.199Z,14.07
2018-04-23T19:43:39.590Z,14.43
2018-04-23T19:46:42.906Z,10.00
2018-04-23T19:49:46.297Z,17.73
2018-04-23T19:52:49.700Z,9.93
2018-04-23T19:55:54.498Z,11.07
2018-04-23T19:58:57.830Z,14.73
2018-04-23T20:02:02.160Z,10.95
2018-04-23T20:05:05.561Z,9.73
2018-04-23T20:08:08.866Z,12.07
2018-04-23T20:11:12.255Z,12.90
2018-04-23T20:14:15.569Z,12.03
2018-04-23T20:17:18.960Z,16.03
2018-04-23T20:20:22.428Z,14.90
2018-04-23T20:23:25.744Z,12.13
2018-04-23T20:26:29.191Z,13.13
2018-04-23T20:29:32.498Z,10.00
2018-04-23T20:32:35.844Z,11.67
2018-04-23T20:35:39.136Z,8.83
2018-04-23T20:38:42.483Z,12.10
2018-04-23T20:41:45.803Z,11.83
2018-04-23T20:44:49.073Z,10.10
2018-04-23T20:47:52.439Z,14.97
2018-04-23T20:50:55.625Z,12.63
2018-04-23T20:54:00.081Z,9.53
2018-04-23T20:57:04.255Z,10.27
2018-04-23T21:00:09.324Z,9.20
2018-04-23T21:03:13.524Z,9.60
2018-04-23T21:06:17.431Z,9.45
2018-04-23T21:09:22.812Z,11.40
2018-04-23T21:12:26.764Z,14.40
2018-04-23T21:15:31.740Z,10.60
2018-04-23T21:18:35.348Z,13.40
2018-04-23T21:21:38.656Z,10.10
2018-04-23T21:24:41.941Z,13.53
2018-04-23T21:27:45.378Z,12.73
2018-04-23T21:30:48.747Z,10.50
2018-04-23T21:33:51.969Z,11.38
2018-04-23T21:36:56.346Z,13.50
2018-04-23T21:39:59.991Z,12.87
2018-04-23T21:43:04.230Z,10.17
2018-04-23T21:46:07.588Z,9.20
2018-04-23T21:49:10.874Z,17.80
2018-04-23T21:52:14.268Z,10.38
2018-04-23T21:55:17.711Z,16.93
2018-04-23T21:58:21.080Z,12.73
2018-04-23T22:01:25.398Z,13.60
2018-04-23T22:04:28.721Z,16.40
2018-04-23T22:07:33.873Z,10.53
2018-04-23T22:10:37.129Z,10.93
2018-04-23T22:13:40.683Z,12.73
2018-04-23T22:16:43.982Z,14.90
2018-04-23T22:19:47.331Z,12.70
2018-04-23T22:22:50.741Z,14.23
2018-04-23T22:25:54.001Z,17.83
2018-04-23T22:28:57.332Z,15.03
2018-04-23T22:32:00.625Z,10.77
2018-04-23T22:35:04.152Z,15.07
2018-04-23T22:38:07.517Z,14.25
2018-04-23T22:41:10.816Z,15.67
2018-04-23T22:44:14.224Z,11.80
2018-04-23T22:47:17.594Z,10.70
2018-04-23T22:50:20.944Z,11.73
2018-04-23T22:53:24.283Z,12.60
2018-04-23T22:56:27.617Z,14.93
2018-04-23T22:59:31.195Z,13.93
2018-04-23T23:02:34.557Z,13.07
2018-04-23T23:05:37.926Z,14.65
2018-04-23T23:08:41.067Z,14.80
2018-04-23T23:11:44.488Z,11.50
2018-04-23T23:14:47.755Z,12.35
2018-04-23T23:17:51.116Z,16.12
2018-04-23T23:20:54.408Z,13.00
2018-04-23T23:23:57.709Z,10.75
2018-04-23T23:27:01.184Z,14.63
2018-04-23T23:30:04.683Z,12.87
2018-04-23T23:33:08.013Z,13.53
2018-04-23T23:36:11.418Z,16.32
2018-04-23T23:39:15.735Z,13.03
2018-04-23T23:42:19.228Z,15.23
2018-04-23T23:45:22.383Z,17.10
2018-04-23T23:48:25.721Z,17.57
2018-04-23T23:51:29.041Z,18.97
2018-04-23T23:54:32.544Z,15.18
2018-04-23T23:57:41.576Z,17.30
